sensor_id;sensor_type;location;lat;lon;timestamp;P1;durP1;ratioP1;P2;durP2;ratioP2
78549;SDS011;68091;52.130;5.570;2023-02-26T00:00:20;12.10;;;3.67;;
78549;SDS011;68091;52.130;5.570;2023-02-26T00:02:49;13.52;;;3.78;;
78549;SDS011;68091;52.130;5.570;2023-02-26T00:05:15;12.07;;;3.88;;
78549;SDS011;68091;52.130;5.570;2023-02-26T00:07:43;11.70;;;3.58;;
78549;SDS011;68091;52.130;5.570;2023-02-26T00:10:10;11.32;;;3.97;;
78549;SDS011;68091;52.130;5.570;2023-02-26T00:12:37;8.95;;;3.60;;
78549;SDS011;68091;52.130;5.570;2023-02-26T00:15:04;15.68;;;3.90;;
78549;SDS011;68091;52.130;5.570;2023-02-26T00:17:44;10.32;;;3.90;;
78549;SDS011;68091;52.130;5.570;2023-02-26T00:20:39;11.30;;;3.97;;
78549;SDS011;68091;52.130;5.570;2023-02-26T00:23:05;12.38;;;3.92;;
78549;SDS011;68091;52.130;5.570;2023-02-26T00:25:31;10.70;;;3.38;;
78549;SDS011;68091;52.130;5.570;2023-02-26T00:27:57;16.42;;;3.20;;
78549;SDS011;68091;52.130;5.570;2023-02-26T00:30:23;13.88;;;2.78;;
78549;SDS011;68091;52.130;5.570;2023-02-26T00:32:49;7.95;;;2.67;;
78549;SDS011;68091;52.130;5.570;2023-02-26T00:35:15;12.05;;;2.60;;
78549;SDS011;68091;52.130;5.570;2023-02-26T00:40:33;9.90;;;2.50;;
78549;SDS011;68091;52.130;5.570;2023-02-26T00:43:20;9.77;;;2.42;;
78549;SDS011;68091;52.130;5.570;2023-02-26T00:45:57;10.10;;;2.25;;
78549;SDS011;68091;52.130;5.570;2023-02-26T00:48:37;8.77;;;2.08;;
78549;SDS011;68091;52.130;5.570;2023-02-26T00:56:33;7.63;;;1.98;;
78549;SDS011;68091;52.130;5.570;2023-02-26T00:58:58;9.25;;;1.92;;
78549;SDS011;68091;52.130;5.570;2023-02-26T01:01:24;12.48;;;2.67;;
78549;SDS011;68091;52.130;5.570;2023-02-26T01:03:50;9.80;;;2.05;;
78549;SDS011;68091;52.130;5.570;2023-02-26T01:06:17;16.70;;;2.58;;
78549;SDS011;68091;52.130;5.570;2023-02-26T01:11:57;9.20;;;2.15;;
78549;SDS011;68091;52.130;5.570;2023-02-26T01:14:25;8.10;;;1.95;;
78549;SDS011;68091;52.130;5.570;2023-02-26T01:16:54;9.82;;;2.30;;
78549;SDS011;68091;52.130;5.570;2023-02-26T01:22:01;11.73;;;1.95;;
78549;SDS011;68091;52.130;5.570;2023-02-26T01:24:33;9.52;;;1.38;;
78549;SDS011;68091;52.130;5.570;2023-02-26T01:27:01;11.48;;;2.40;;
78549;SDS011;68091;52.130;5.570;2023-02-26T01:29:27;8.60;;;1.60;;
78549;SDS011;68091;52.130;5.570;2023-02-26T01:44:04;8.98;;;1.90;;
78549;SDS011;68091;52.130;5.570;2023-02-26T01:47:02;9.07;;;2.53;;
78549;SDS011;68091;52.130;5.570;2023-02-26T01:49:53;10.98;;;2.15;;
78549;SDS011;68091;52.130;5.570;2023-02-26T01:55:13;7.43;;;1.70;;
78549;SDS011;68091;52.130;5.570;2023-02-26T01:57:44;12.65;;;1.92;;
78549;SDS011;68091;52.130;5.570;2023-02-26T02:00:11;5.55;;;1.52;;
78549;SDS011;68091;52.130;5.570;2023-02-26T02:02:37;11.93;;;1.88;;
78549;SDS011;68091;52.130;5.570;2023-02-26T02:05:03;13.88;;;1.80;;
78549;SDS011;68091;52.130;5.570;2023-02-26T02:07:36;11.82;;;1.85;;
78549;SDS011;68091;52.130;5.570;2023-02-26T02:10:02;8.50;;;1.70;;
78549;SDS011;68091;52.130;5.570;2023-02-26T02:23:14;8.27;;;1.70;;
78549;SDS011;68091;52.130;5.570;2023-02-26T02:29:07;10.40;;;2.03;;
78549;SDS011;68091;52.130;5.570;2023-02-26T02:32:14;17.55;;;2.08;;
78549;SDS011;68091;52.130;5.570;2023-02-26T02:37:33;6.97;;;1.50;;
78549;SDS011;68091;52.130;5.570;2023-02-26T02:40:08;5.22;;;1.80;;
78549;SDS011;68091;52.130;5.570;2023-02-26T02:45:16;15.32;;;2.10;;
78549;SDS011;68091;52.130;5.570;2023-02-26T02:47:49;11.13;;;1.90;;
78549;SDS011;68091;52.130;5.570;2023-02-26T02:50:28;10.25;;;1.73;;
78549;SDS011;68091;52.130;5.570;2023-02-26T02:56:28;8.32;;;1.92;;
78549;SDS011;68091;52.130;5.570;2023-02-26T02:58:42;8.75;;;1.63;;
78549;SDS011;68091;52.130;5.570;2023-02-26T03:01:16;7.25;;;1.42;;
78549;SDS011;68091;52.130;5.570;2023-02-26T03:06:29;13.70;;;2.25;;
78549;SDS011;68091;52.130;5.570;2023-02-26T03:08:55;10.68;;;2.13;;
78549;SDS011;68091;52.130;5.570;2023-02-26T03:11:21;10.10;;;1.60;;
78549;SDS011;68091;52.130;5.570;2023-02-26T03:13:48;11.20;;;1.88;;
78549;SDS011;68091;52.130;5.570;2023-02-26T03:16:31;5.55;;;1.20;;
78549;SDS011;68091;52.130;5.570;2023-02-26T03:19:14;7.63;;;1.45;;
78549;SDS011;68091;52.130;5.570;2023-02-26T03:24:51;10.77;;;1.95;;
78549;SDS011;68091;52.130;5.570;2023-02-26T03:30:44;8.10;;;1.70;;
78549;SDS011;68091;52.130;5.570;2023-02-26T03:33:26;10.98;;;1.80;;
78549;SDS011;68091;52.130;5.570;2023-02-26T03:38:50;10.50;;;1.88;;
78549;SDS011;68091;52.130;5.570;2023-02-26T03:41:32;6.63;;;1.50;;
78549;SDS011;68091;52.130;5.570;2023-02-26T03:44:28;9.27;;;1.42;;
78549;SDS011;68091;52.130;5.570;2023-02-26T03:46:59;7.63;;;1.30;;
78549;SDS011;68091;52.130;5.570;2023-02-26T03:49:37;8.05;;;1.70;;
78549;SDS011;68091;52.130;5.570;2023-02-26T03:52:17;7.25;;;2.08;;
78549;SDS011;68091;52.130;5.570;2023-02-26T03:54:48;12.45;;;1.50;;
78549;SDS011;68091;52.130;5.570;2023-02-26T03:57:26;6.28;;;1.40;;
78549;SDS011;68091;52.130;5.570;2023-02-26T03:59:52;6.38;;;1.50;;
78549;SDS011;68091;52.130;5.570;2023-02-26T04:02:21;5.13;;;1.50;;
78549;SDS011;68091;52.130;5.570;2023-02-26T04:04:56;6.45;;;1.67;;
78549;SDS011;68091;52.130;5.570;2023-02-26T04:07:27;7.50;;;1.60;;
78549;SDS011;68091;52.130;5.570;2023-02-26T04:09:53;10.15;;;1.60;;
78549;SDS011;68091;52.130;5.570;2023-02-26T04:12:21;10.38;;;1.65;;
78549;SDS011;68091;52.130;5.570;2023-02-26T04:14:48;10.13;;;1.45;;
78549;SDS011;68091;52.130;5.570;2023-02-26T04:17:15;4.18;;;1.40;;
78549;SDS011;68091;52.130;5.570;2023-02-26T04:19:41;8.88;;;1.55;;
78549;SDS011;68091;52.130;5.570;2023-02-26T04:22:06;7.50;;;1.70;;
78549;SDS011;68091;52.130;5.570;2023-02-26T04:24:32;6.85;;;1.60;;
78549;SDS011;68091;52.130;5.570;2023-02-26T04:26:58;7.82;;;2.50;;
78549;SDS011;68091;52.130;5.570;2023-02-26T04:29:24;4.60;;;1.45;;
78549;SDS011;68091;52.130;5.570;2023-02-26T04:31:50;11.10;;;1.83;;
78549;SDS011;68091;52.130;5.570;2023-02-26T04:34:16;9.05;;;1.65;;
78549;SDS011;68091;52.130;5.570;2023-02-26T04:36:42;10.10;;;1.70;;
78549;SDS011;68091;52.130;5.570;2023-02-26T04:39:08;5.97;;;1.73;;
78549;SDS011;68091;52.130;5.570;2023-02-26T04:41:34;9.25;;;1.70;;
78549;SDS011;68091;52.130;5.570;2023-02-26T04:44:01;7.38;;;1.60;;
78549;SDS011;68091;52.130;5.570;2023-02-26T04:46:28;7.80;;;1.98;;
78549;SDS011;68091;52.130;5.570;2023-02-26T04:48:54;7.35;;;1.30;;
78549;SDS011;68091;52.130;5.570;2023-02-26T04:51:19;8.98;;;1.80;;
78549;SDS011;68091;52.130;5.570;2023-02-26T04:53:45;9.63;;;1.95;;
78549;SDS011;68091;52.130;5.570;2023-02-26T04:56:11;9.00;;;1.60;;
78549;SDS011;68091;52.130;5.570;2023-02-26T04:58:37;14.65;;;1.77;;
78549;SDS011;68091;52.130;5.570;2023-02-26T05:01:03;6.22;;;1.30;;
78549;SDS011;68091;52.130;5.570;2023-02-26T05:03:29;6.57;;;1.27;;
78549;SDS011;68091;52.130;5.570;2023-02-26T05:05:55;7.13;;;1.40;;
78549;SDS011;68091;52.130;5.570;2023-02-26T05:08:21;5.60;;;1.58;;
78549;SDS011;68091;52.130;5.570;2023-02-26T05:10:47;6.68;;;1.40;;
78549;SDS011;68091;52.130;5.570;2023-02-26T05:13:13;9.48;;;1.60;;
78549;SDS011;68091;52.130;5.570;2023-02-26T05:15:39;4.13;;;1.23;;
78549;SDS011;68091;52.130;5.570;2023-02-26T05:18:05;7.45;;;1.60;;
78549;SDS011;68091;52.130;5.570;2023-02-26T05:20:30;5.75;;;1.30;;
78549;SDS011;68091;52.130;5.570;2023-02-26T05:22:56;6.35;;;1.67;;
78549;SDS011;68091;52.130;5.570;2023-02-26T05:25:22;4.72;;;1.30;;
78549;SDS011;68091;52.130;5.570;2023-02-26T05:27:48;9.18;;;1.60;;
78549;SDS011;68091;52.130;5.570;2023-02-26T05:30:14;8.95;;;1.52;;
78549;SDS011;68091;52.130;5.570;2023-02-26T05:32:40;2.75;;;1.38;;
78549;SDS011;68091;52.130;5.570;2023-02-26T05:35:07;5.85;;;1.30;;
78549;SDS011;68091;52.130;5.570;2023-02-26T05:37:34;8.70;;;1.92;;
78549;SDS011;68091;52.130;5.570;2023-02-26T05:40:00;8.68;;;1.65;;
78549;SDS011;68091;52.130;5.570;2023-02-26T05:42:26;4.22;;;1.55;;
78549;SDS011;68091;52.130;5.570;2023-02-26T05:44:52;5.80;;;1.63;;
78549;SDS011;68091;52.130;5.570;2023-02-26T05:47:21;5.13;;;1.40;;
78549;SDS011;68091;52.130;5.570;2023-02-26T05:49:47;3.83;;;1.50;;
78549;SDS011;68091;52.130;5.570;2023-02-26T05:52:13;7.45;;;1.98;;
78549;SDS011;68091;52.130;5.570;2023-02-26T05:54:39;5.45;;;1.63;;
78549;SDS011;68091;52.130;5.570;2023-02-26T05:57:05;7.53;;;1.70;;
78549;SDS011;68091;52.130;5.570;2023-02-26T05:59:31;9.02;;;1.70;;
78549;SDS011;68091;52.130;5.570;2023-02-26T06:01:57;10.50;;;1.80;;
78549;SDS011;68091;52.130;5.570;2023-02-26T06:04:23;7.28;;;1.58;;
78549;SDS011;68091;52.130;5.570;2023-02-26T06:06:48;6.05;;;1.73;;
78549;SDS011;68091;52.130;5.570;2023-02-26T06:09:14;6.00;;;1.63;;
78549;SDS011;68091;52.130;5.570;2023-02-26T06:11:40;5.93;;;1.92;;
78549;SDS011;68091;52.130;5.570;2023-02-26T06:14:06;5.18;;;1.35;;
78549;SDS011;68091;52.130;5.570;2023-02-26T06:16:32;7.80;;;1.85;;
78549;SDS011;68091;52.130;5.570;2023-02-26T06:19:00;6.13;;;1.55;;
78549;SDS011;68091;52.130;5.570;2023-02-26T06:21:26;9.35;;;2.17;;
78549;SDS011;68091;52.130;5.570;2023-02-26T06:23:52;8.43;;;1.85;;
78549;SDS011;68091;52.130;5.570;2023-02-26T06:26:18;7.40;;;1.63;;
78549;SDS011;68091;52.130;5.570;2023-02-26T06:28:44;6.88;;;1.95;;
78549;SDS011;68091;52.130;5.570;2023-02-26T06:31:09;6.60;;;1.70;;
78549;SDS011;68091;52.130;5.570;2023-02-26T06:33:35;9.88;;;1.98;;
78549;SDS011;68091;52.130;5.570;2023-02-26T06:36:01;7.97;;;1.90;;
78549;SDS011;68091;52.130;5.570;2023-02-26T06:38:27;10.55;;;1.88;;
78549;SDS011;68091;52.130;5.570;2023-02-26T06:40:53;6.80;;;2.13;;
78549;SDS011;68091;52.130;5.570;2023-02-26T06:43:19;10.95;;;2.85;;
78549;SDS011;68091;52.130;5.570;2023-02-26T06:45:45;7.55;;;2.47;;
78549;SDS011;68091;52.130;5.570;2023-02-26T06:48:14;8.15;;;2.17;;
78549;SDS011;68091;52.130;5.570;2023-02-26T06:50:40;8.70;;;1.95;;
78549;SDS011;68091;52.130;5.570;2023-02-26T06:53:05;4.50;;;1.80;;
78549;SDS011;68091;52.130;5.570;2023-02-26T06:55:32;11.73;;;1.77;;
78549;SDS011;68091;52.130;5.570;2023-02-26T06:57:57;8.98;;;2.35;;
78549;SDS011;68091;52.130;5.570;2023-02-26T07:00:24;12.00;;;1.88;;
78549;SDS011;68091;52.130;5.570;2023-02-26T07:02:50;6.80;;;1.45;;
78549;SDS011;68091;52.130;5.570;2023-02-26T07:05:17;9.90;;;2.72;;
78549;SDS011;68091;52.130;5.570;2023-02-26T07:07:43;5.40;;;1.70;;
78549;SDS011;68091;52.130;5.570;2023-02-26T07:10:11;6.28;;;1.88;;
78549;SDS011;68091;52.130;5.570;2023-02-26T07:12:37;6.85;;;1.40;;
78549;SDS011;68091;52.130;5.570;2023-02-26T07:15:03;6.30;;;1.40;;
78549;SDS011;68091;52.130;5.570;2023-02-26T07:17:30;5.10;;;1.60;;
78549;SDS011;68091;52.130;5.570;2023-02-26T07:19:56;11.40;;;1.75;;
78549;SDS011;68091;52.130;5.570;2023-02-26T07:22:22;7.93;;;1.52;;
78549;SDS011;68091;52.130;5.570;2023-02-26T07:24:48;8.10;;;1.58;;
78549;SDS011;68091;52.130;5.570;2023-02-26T07:27:19;6.03;;;1.80;;
78549;SDS011;68091;52.130;5.570;2023-02-26T07:29:48;8.98;;;1.73;;
78549;SDS011;68091;52.130;5.570;2023-02-26T07:32:14;5.47;;;1.55;;
78549;SDS011;68091;52.130;5.570;2023-02-26T07:34:39;7.75;;;1.40;;
78549;SDS011;68091;52.130;5.570;2023-02-26T07:37:06;12.23;;;1.80;;
78549;SDS011;68091;52.130;5.570;2023-02-26T07:39:32;11.38;;;1.60;;
78549;SDS011;68091;52.130;5.570;2023-02-26T07:41:58;9.07;;;1.67;;
78549;SDS011;68091;52.130;5.570;2023-02-26T07:44:24;11.77;;;2.00;;
78549;SDS011;68091;52.130;5.570;2023-02-26T07:46:50;8.35;;;1.95;;
78549;SDS011;68091;52.130;5.570;2023-02-26T07:49:15;6.57;;;1.77;;
78549;SDS011;68091;52.130;5.570;2023-02-26T07:51:41;4.00;;;1.50;;
78549;SDS011;68091;52.130;5.570;2023-02-26T07:54:10;10.35;;;2.20;;
78549;SDS011;68091;52.130;5.570;2023-02-26T07:56:42;8.68;;;2.10;;
78549;SDS011;68091;52.130;5.570;2023-02-26T07:59:09;8.48;;;1.98;;
78549;SDS011;68091;52.130;5.570;2023-02-26T08:01:35;7.43;;;1.88;;
78549;SDS011;68091;52.130;5.570;2023-02-26T08:04:01;9.02;;;1.60;;
78549;SDS011;68091;52.130;5.570;2023-02-26T08:06:28;5.53;;;1.50;;
78549;SDS011;68091;52.130;5.570;2023-02-26T08:08:54;8.73;;;1.70;;
78549;SDS011;68091;52.130;5.570;2023-02-26T08:11:20;8.30;;;1.65;;
78549;SDS011;68091;52.130;5.570;2023-02-26T08:13:46;7.30;;;1.90;;
78549;SDS011;68091;52.130;5.570;2023-02-26T08:16:14;4.40;;;1.33;;
78549;SDS011;68091;52.130;5.570;2023-02-26T08:18:40;9.98;;;1.60;;
78549;SDS011;68091;52.130;5.570;2023-02-26T08:21:08;11.25;;;2.28;;
78549;SDS011;68091;52.130;5.570;2023-02-26T08:23:48;7.50;;;1.42;;
78549;SDS011;68091;52.130;5.570;2023-02-26T08:26:22;4.43;;;1.45;;
78549;SDS011;68091;52.130;5.570;2023-02-26T08:28:59;9.95;;;1.88;;
78549;SDS011;68091;52.130;5.570;2023-02-26T08:31:25;8.43;;;1.50;;
78549;SDS011;68091;52.130;5.570;2023-02-26T08:33:52;11.32;;;1.80;;
78549;SDS011;68091;52.130;5.570;2023-02-26T08:36:27;4.13;;;2.13;;
78549;SDS011;68091;52.130;5.570;2023-02-26T08:38:56;9.75;;;1.67;;
78549;SDS011;68091;52.130;5.570;2023-02-26T08:41:40;7.50;;;1.80;;
78549;SDS011;68091;52.130;5.570;2023-02-26T08:44:06;8.25;;;1.42;;
78549;SDS011;68091;52.130;5.570;2023-02-26T08:46:32;6.97;;;1.63;;
78549;SDS011;68091;52.130;5.570;2023-02-26T08:48:58;4.72;;;1.20;;
78549;SDS011;68091;52.130;5.570;2023-02-26T08:51:26;6.28;;;1.70;;
78549;SDS011;68091;52.130;5.570;2023-02-26T08:53:55;9.18;;;1.70;;
78549;SDS011;68091;52.130;5.570;2023-02-26T08:56:21;9.30;;;1.85;;
78549;SDS011;68091;52.130;5.570;2023-02-26T08:58:50;4.72;;;1.65;;
78549;SDS011;68091;52.130;5.570;2023-02-26T09:01:15;6.38;;;1.75;;
78549;SDS011;68091;52.130;5.570;2023-02-26T09:03:41;7.18;;;1.63;;
78549;SDS011;68091;52.130;5.570;2023-02-26T09:06:07;7.57;;;1.65;;
78549;SDS011;68091;52.130;5.570;2023-02-26T09:08:33;8.43;;;1.65;;
78549;SDS011;68091;52.130;5.570;2023-02-26T09:11:02;4.88;;;1.55;;
78549;SDS011;68091;52.130;5.570;2023-02-26T09:13:30;3.40;;;1.20;;
78549;SDS011;68091;52.130;5.570;2023-02-26T09:15:59;8.73;;;1.42;;
78549;SDS011;68091;52.130;5.570;2023-02-26T09:18:25;5.18;;;1.35;;
78549;SDS011;68091;52.130;5.570;2023-02-26T09:20:51;9.38;;;1.40;;
78549;SDS011;68091;52.130;5.570;2023-02-26T09:23:19;6.18;;;1.60;;
78549;SDS011;68091;52.130;5.570;2023-02-26T09:25:45;6.80;;;1.52;;
78549;SDS011;68091;52.130;5.570;2023-02-26T09:28:15;6.47;;;1.58;;
78549;SDS011;68091;52.130;5.570;2023-02-26T09:30:44;5.10;;;1.70;;
78549;SDS011;68091;52.130;5.570;2023-02-26T09:33:12;4.35;;;1.65;;
78549;SDS011;68091;52.130;5.570;2023-02-26T09:35:38;4.60;;;1.30;;
78549;SDS011;68091;52.130;5.570;2023-02-26T09:38:04;7.90;;;1.40;;
78549;SDS011;68091;52.130;5.570;2023-02-26T09:43:34;6.78;;;1.38;;
78549;SDS011;68091;52.130;5.570;2023-02-26T09:48:50;8.43;;;1.63;;
78549;SDS011;68091;52.130;5.570;2023-02-26T09:51:26;3.45;;;1.10;;
78549;SDS011;68091;52.130;5.570;2023-02-26T09:53:54;8.20;;;1.73;;
78549;SDS011;68091;52.130;5.570;2023-02-26T09:56:24;2.47;;;1.13;;
78549;SDS011;68091;52.130;5.570;2023-02-26T09:58:53;3.47;;;1.13;;
78549;SDS011;68091;52.130;5.570;2023-02-26T10:01:30;3.67;;;1.02;;
78549;SDS011;68091;52.130;5.570;2023-02-26T10:10:27;2.55;;;1.10;;
78549;SDS011;68091;52.130;5.570;2023-02-26T10:12:54;6.20;;;1.30;;
78549;SDS011;68091;52.130;5.570;2023-02-26T10:15:21;3.95;;;1.13;;
78549;SDS011;68091;52.130;5.570;2023-02-26T10:18:00;4.47;;;1.40;;
78549;SDS011;68091;52.130;5.570;2023-02-26T10:23:22;3.38;;;1.10;;
78549;SDS011;68091;52.130;5.570;2023-02-26T10:29:10;2.88;;;1.40;;
78549;SDS011;68091;52.130;5.570;2023-02-26T10:32:09;2.47;;;1.30;;
78549;SDS011;68091;52.130;5.570;2023-02-26T10:34:56;4.93;;;1.30;;
78549;SDS011;68091;52.130;5.570;2023-02-26T10:42:58;7.10;;;1.67;;
78549;SDS011;68091;52.130;5.570;2023-02-26T10:50:56;5.22;;;1.00;;
78549;SDS011;68091;52.130;5.570;2023-02-26T10:53:25;2.85;;;1.08;;
78549;SDS011;68091;52.130;5.570;2023-02-26T10:56:04;4.80;;;1.23;;
78549;SDS011;68091;52.130;5.570;2023-02-26T10:58:37;4.75;;;1.27;;
78549;SDS011;68091;52.130;5.570;2023-02-26T11:01:06;5.80;;;1.20;;
78549;SDS011;68091;52.130;5.570;2023-02-26T11:03:42;7.55;;;1.50;;
78549;SDS011;68091;52.130;5.570;2023-02-26T11:06:17;3.13;;;1.10;;
78549;SDS011;68091;52.130;5.570;2023-02-26T11:08:53;5.13;;;1.30;;
78549;SDS011;68091;52.130;5.570;2023-02-26T11:14:07;3.60;;;0.98;;
78549;SDS011;68091;52.130;5.570;2023-02-26T11:16:34;4.25;;;1.20;;
78549;SDS011;68091;52.130;5.570;2023-02-26T11:19:05;2.50;;;1.00;;
78549;SDS011;68091;52.130;5.570;2023-02-26T11:21:36;2.88;;;0.90;;
78549;SDS011;68091;52.130;5.570;2023-02-26T11:24:06;4.22;;;1.30;;
78549;SDS011;68091;52.130;5.570;2023-02-26T11:26:36;1.02;;;0.90;;
78549;SDS011;68091;52.130;5.570;2023-02-26T11:29:03;3.50;;;1.20;;
78549;SDS011;68091;52.130;5.570;2023-02-26T11:31:30;4.55;;;1.55;;
78549;SDS011;68091;52.130;5.570;2023-02-26T11:34:07;1.95;;;1.05;;
78549;SDS011;68091;52.130;5.570;2023-02-26T11:36:36;4.53;;;1.30;;
78549;SDS011;68091;52.130;5.570;2023-02-26T11:39:16;3.72;;;1.20;;
78549;SDS011;68091;52.130;5.570;2023-02-26T11:41:46;6.38;;;1.63;;
78549;SDS011;68091;52.130;5.570;2023-02-26T11:44:15;4.78;;;1.27;;
78549;SDS011;68091;52.130;5.570;2023-02-26T11:46:49;3.65;;;0.98;;
78549;SDS011;68091;52.130;5.570;2023-02-26T11:49:18;2.38;;;0.82;;
78549;SDS011;68091;52.130;5.570;2023-02-26T11:51:47;3.42;;;1.20;;
78549;SDS011;68091;52.130;5.570;2023-02-26T11:54:28;7.80;;;1.00;;
78549;SDS011;68091;52.130;5.570;2023-02-26T11:57:10;2.63;;;0.90;;
78549;SDS011;68091;52.130;5.570;2023-02-26T11:59:44;4.47;;;1.10;;
78549;SDS011;68091;52.130;5.570;2023-02-26T12:02:14;4.10;;;1.30;;
78549;SDS011;68091;52.130;5.570;2023-02-26T12:04:46;4.78;;;1.05;;
78549;SDS011;68091;52.130;5.570;2023-02-26T12:07:14;2.42;;;1.13;;
78549;SDS011;68091;52.130;5.570;2023-02-26T12:09:41;3.38;;;1.35;;
78549;SDS011;68091;52.130;5.570;2023-02-26T12:23:12;3.25;;;0.80;;
78549;SDS011;68091;52.130;5.570;2023-02-26T12:26:06;5.88;;;1.65;;
78549;SDS011;68091;52.130;5.570;2023-02-26T12:34:46;2.20;;;1.27;;
78549;SDS011;68091;52.130;5.570;2023-02-26T12:37:41;3.45;;;1.27;;
78549;SDS011;68091;52.130;5.570;2023-02-26T12:40:04;4.45;;;1.20;;
78549;SDS011;68091;52.130;5.570;2023-02-26T12:48:42;2.60;;;1.20;;
78549;SDS011;68091;52.130;5.570;2023-02-26T13:18:33;1.15;;;0.77;;
78549;SDS011;68091;52.130;5.570;2023-02-26T13:21:54;4.10;;;0.90;;
78549;SDS011;68091;52.130;5.570;2023-02-26T13:24:04;1.30;;;0.70;;
78549;SDS011;68091;52.130;5.570;2023-02-26T13:26:46;3.47;;;1.10;;
78549;SDS011;68091;52.130;5.570;2023-02-26T13:29:20;2.03;;;1.10;;
78549;SDS011;68091;52.130;5.570;2023-02-26T13:34:54;4.18;;;0.90;;
78549;SDS011;68091;52.130;5.570;2023-02-26T13:37:41;2.95;;;1.30;;
78549;SDS011;68091;52.130;5.570;2023-02-26T13:48:19;1.80;;;0.73;;
78549;SDS011;68091;52.130;5.570;2023-02-26T13:59:01;3.25;;;0.90;;
78549;SDS011;68091;52.130;5.570;2023-02-26T14:06:46;1.83;;;0.80;;
78549;SDS011;68091;52.130;5.570;2023-02-26T14:14:41;2.40;;;1.13;;
78549;SDS011;68091;52.130;5.570;2023-02-26T14:22:33;3.00;;;1.33;;
78549;SDS011;68091;52.130;5.570;2023-02-26T14:30:49;2.72;;;0.80;;
78549;SDS011;68091;52.130;5.570;2023-02-26T14:34:19;3.95;;;0.90;;
78549;SDS011;68091;52.130;5.570;2023-02-26T14:36:45;1.75;;;0.80;;
78549;SDS011;68091;52.130;5.570;2023-02-26T14:39:23;2.28;;;1.00;;
78549;SDS011;68091;52.130;5.570;2023-02-26T14:41:54;1.77;;;0.70;;
78549;SDS011;68091;52.130;5.570;2023-02-26T14:44:45;2.08;;;0.73;;
78549;SDS011;68091;52.130;5.570;2023-02-26T14:47:17;3.03;;;0.80;;
78549;SDS011;68091;52.130;5.570;2023-02-26T14:49:44;3.40;;;0.80;;
78549;SDS011;68091;52.130;5.570;2023-02-26T14:52:17;2.03;;;0.98;;
78549;SDS011;68091;52.130;5.570;2023-02-26T14:57:50;3.63;;;1.00;;
78549;SDS011;68091;52.130;5.570;2023-02-26T15:09:26;2.35;;;0.98;;
78549;SDS011;68091;52.130;5.570;2023-02-26T15:20:18;4.50;;;1.10;;
78549;SDS011;68091;52.130;5.570;2023-02-26T15:23:01;3.80;;;0.80;;
78549;SDS011;68091;52.130;5.570;2023-02-26T15:25:38;2.13;;;0.95;;
78549;SDS011;68091;52.130;5.570;2023-02-26T15:28:09;3.58;;;1.08;;
78549;SDS011;68091;52.130;5.570;2023-02-26T15:30:39;4.32;;;1.17;;
78549;SDS011;68091;52.130;5.570;2023-02-26T15:33:11;2.28;;;1.02;;
78549;SDS011;68091;52.130;5.570;2023-02-26T15:35:42;3.67;;;0.90;;
78549;SDS011;68091;52.130;5.570;2023-02-26T15:38:22;3.50;;;1.20;;
78549;SDS011;68091;52.130;5.570;2023-02-26T15:40:50;6.80;;;1.70;;
78549;SDS011;68091;52.130;5.570;2023-02-26T15:43:23;3.88;;;1.20;;
78549;SDS011;68091;52.130;5.570;2023-02-26T15:45:54;3.65;;;1.42;;
78549;SDS011;68091;52.130;5.570;2023-02-26T15:48:29;4.93;;;1.90;;
78549;SDS011;68091;52.130;5.570;2023-02-26T15:51:11;5.03;;;1.10;;
78549;SDS011;68091;52.130;5.570;2023-02-26T15:53:40;3.67;;;1.17;;
78549;SDS011;68091;52.130;5.570;2023-02-26T15:56:27;3.08;;;1.00;;
78549;SDS011;68091;52.130;5.570;2023-02-26T15:58:57;5.55;;;1.27;;
78549;SDS011;68091;52.130;5.570;2023-02-26T16:01:27;7.20;;;3.80;;
78549;SDS011;68091;52.130;5.570;2023-02-26T16:03:59;4.93;;;1.67;;
78549;SDS011;68091;52.130;5.570;2023-02-26T16:06:29;3.03;;;1.20;;
78549;SDS011;68091;52.130;5.570;2023-02-26T16:09:03;2.35;;;1.15;;
78549;SDS011;68091;52.130;5.570;2023-02-26T16:11:32;3.65;;;1.55;;
78549;SDS011;68091;52.130;5.570;2023-02-26T16:14:01;5.72;;;1.58;;
78549;SDS011;68091;52.130;5.570;2023-02-26T16:16:38;6.22;;;2.00;;
78549;SDS011;68091;52.130;5.570;2023-02-26T16:19:08;3.47;;;1.92;;
78549;SDS011;68091;52.130;5.570;2023-02-26T16:21:39;5.60;;;2.13;;
78549;SDS011;68091;52.130;5.570;2023-02-26T16:24:06;4.93;;;1.48;;
78549;SDS011;68091;52.130;5.570;2023-02-26T16:26:37;4.47;;;1.60;;
78549;SDS011;68091;52.130;5.570;2023-02-26T16:32:02;3.50;;;1.52;;
78549;SDS011;68091;52.130;5.570;2023-02-26T16:34:42;6.60;;;1.30;;
78549;SDS011;68091;52.130;5.570;2023-02-26T16:37:22;5.90;;;1.50;;
78549;SDS011;68091;52.130;5.570;2023-02-26T16:39:53;4.10;;;1.08;;
78549;SDS011;68091;52.130;5.570;2023-02-26T16:42:35;5.53;;;1.70;;
78549;SDS011;68091;52.130;5.570;2023-02-26T16:47:45;5.68;;;1.52;;
78549;SDS011;68091;52.130;5.570;2023-02-26T16:50:28;4.43;;;1.48;;
78549;SDS011;68091;52.130;5.570;2023-02-26T16:55:24;12.07;;;2.38;;
78549;SDS011;68091;52.130;5.570;2023-02-26T16:57:51;9.45;;;1.40;;
78549;SDS011;68091;52.130;5.570;2023-02-26T17:00:22;5.57;;;1.80;;
78549;SDS011;68091;52.130;5.570;2023-02-26T17:05:40;10.75;;;1.90;;
78549;SDS011;68091;52.130;5.570;2023-02-26T17:08:18;6.28;;;1.70;;
78549;SDS011;68091;52.130;5.570;2023-02-26T17:10:49;9.48;;;1.73;;
78549;SDS011;68091;52.130;5.570;2023-02-26T17:16:11;8.93;;;1.75;;
78549;SDS011;68091;52.130;5.570;2023-02-26T17:18:38;13.10;;;2.85;;
78549;SDS011;68091;52.130;5.570;2023-02-26T17:21:04;4.95;;;1.90;;
78549;SDS011;68091;52.130;5.570;2023-02-26T17:23:31;10.35;;;2.60;;
78549;SDS011;68091;52.130;5.570;2023-02-26T17:26:01;3.63;;;2.20;;
78549;SDS011;68091;52.130;5.570;2023-02-26T17:28:31;7.80;;;2.10;;
78549;SDS011;68091;52.130;5.570;2023-02-26T17:31:03;6.60;;;2.63;;
78549;SDS011;68091;52.130;5.570;2023-02-26T17:33:29;7.03;;;1.70;;
78549;SDS011;68091;52.130;5.570;2023-02-26T17:35:57;9.00;;;2.22;;
78549;SDS011;68091;52.130;5.570;2023-02-26T17:38:25;7.05;;;2.38;;
78549;SDS011;68091;52.130;5.570;2023-02-26T17:40:52;15.68;;;2.67;;
78549;SDS011;68091;52.130;5.570;2023-02-26T17:43:19;8.93;;;2.38;;
78549;SDS011;68091;52.130;5.570;2023-02-26T17:45:46;5.30;;;1.98;;
78549;SDS011;68091;52.130;5.570;2023-02-26T17:48:12;5.97;;;2.28;;
78549;SDS011;68091;52.130;5.570;2023-02-26T17:53:14;5.47;;;1.77;;
78549;SDS011;68091;52.130;5.570;2023-02-26T17:55:42;5.20;;;2.30;;
78549;SDS011;68091;52.130;5.570;2023-02-26T17:58:21;7.53;;;2.00;;
78549;SDS011;68091;52.130;5.570;2023-02-26T18:01:05;11.25;;;2.85;;
78549;SDS011;68091;52.130;5.570;2023-02-26T18:03:33;8.02;;;1.90;;
78549;SDS011;68091;52.130;5.570;2023-02-26T18:05:59;12.43;;;2.17;;
78549;SDS011;68091;52.130;5.570;2023-02-26T18:08:26;10.15;;;2.13;;
78549;SDS011;68091;52.130;5.570;2023-02-26T18:10:55;14.27;;;2.10;;
78549;SDS011;68091;52.130;5.570;2023-02-26T18:13:21;12.68;;;2.40;;
78549;SDS011;68091;52.130;5.570;2023-02-26T18:15:47;12.13;;;2.20;;
78549;SDS011;68091;52.130;5.570;2023-02-26T18:18:17;9.57;;;2.28;;
78549;SDS011;68091;52.130;5.570;2023-02-26T18:20:45;8.63;;;2.28;;
78549;SDS011;68091;52.130;5.570;2023-02-26T18:23:11;6.55;;;2.75;;
78549;SDS011;68091;52.130;5.570;2023-02-26T18:25:40;10.90;;;2.55;;
78549;SDS011;68091;52.130;5.570;2023-02-26T18:28:09;9.32;;;2.70;;
78549;SDS011;68091;52.130;5.570;2023-02-26T18:30:39;11.20;;;4.10;;
78549;SDS011;68091;52.130;5.570;2023-02-26T18:33:08;7.20;;;3.05;;
78549;SDS011;68091;52.130;5.570;2023-02-26T18:35:37;8.93;;;3.00;;
78549;SDS011;68091;52.130;5.570;2023-02-26T18:38:10;9.52;;;2.65;;
78549;SDS011;68091;52.130;5.570;2023-02-26T18:40:37;9.00;;;2.33;;
78549;SDS011;68091;52.130;5.570;2023-02-26T18:43:03;5.97;;;2.35;;
78549;SDS011;68091;52.130;5.570;2023-02-26T18:45:29;12.70;;;2.85;;
78549;SDS011;68091;52.130;5.570;2023-02-26T18:47:56;11.07;;;3.33;;